CheckWX is a tool to help pilots better visualize weather data.  It is not intended as a substitute for an official pre-flight weather briefing.

07:19:19 UTC

KHIF METAR
Hill AFB Airport
Ogden, Utah, USA
Current

21 mins ago

KHIF 180658Z AUTO 05006KT 10SM CLR 10/M01 A3004 RMK AO2 SLP138 T01041013 401980095
Observed
Sep-18 @ 06:58 UTC
Wind
  • 050° at 6 KTS
Visibility
10 SM
Flight Rules
VFR
Cloud Levels
  • Clear skies
Temperature
10°C / 50°F
Dewpoint
-1°C / 30°F
Humidity
47%
Altimeter
30.04" Hg
Pressure
1017.32 hPa
Previous

3 hours ago

KHIF 180358Z 05006KT 10SM CLR 13/M03 A3006 RMK AO2A SLP147 T01271028
Observed
Sep-18 @ 03:58 UTC
Wind
  • 050° at 6 KTS
Visibility
10 SM
Flight Rules
VFR
Cloud Levels
  • Clear skies
Temperature
13°C / 55°F
Dewpoint
-3°C / 27°F
Humidity
33%
Altimeter
30.06" Hg
Pressure
1017.92 hPa
Previous

4 hours ago

KHIF 180258Z AUTO 05005KT 10SM CLR 12/M02 A3007 RMK AO2 SLP154 T01241019 56008
Observed
Sep-18 @ 02:58 UTC
Wind
  • 050° at 5 KTS
Visibility
10 SM
Flight Rules
VFR
Cloud Levels
  • Clear skies
Temperature
12°C / 54°F
Dewpoint
-2°C / 28°F
Humidity
38%
Altimeter
30.07" Hg
Pressure
1018.32 hPa